CDT,Max TemperatureF,Mean TemperatureF,Min TemperatureF,Max Dew PointF,MeanDew PointF,Min DewpointF,Max Humidity, Mean Humidity, Min Humidity, Max Sea Level PressureIn, Mean Sea Level PressureIn, Min Sea Level PressureIn, Max VisibilityMiles, Mean VisibilityMiles, Min VisibilityMiles, Max Wind SpeedMPH, Mean Wind SpeedMPH, Max Gust SpeedMPH,PrecipitationIn, CloudCover, Events, WindDirDegrees
2013-3-1,26,22,14,21,16,10,86,72,55,30.30,30.24,30.15,10,10,7,13,8,17,0.00,7,Snow,3
2013-3-2,26,14,1,16,11,0,92,77,59,30.29,30.23,30.12,10,10,5,8,3,,0.00,2,Snow,318
2013-3-3,30,24,19,19,16,10,86,69,51,30.12,30.00,29.92,10,10,2,18,9,24,0.00,4,Snow,127
2013-3-4,30,26,23,25,22,19,93,85,75,29.97,29.88,29.82,10,6,1,24,15,29,0.01,8,Snow,115
2013-3-5,30,26,23,25,23,19,93,85,74,30.25,30.03,29.91,10,6,1,21,8,28,0.08,8,Snow,326
2013-3-6,24,17,8,19,16,5,93,85,74,30.38,30.33,30.25,10,9,0,13,9,18,0.00,7,Fog,329
2013-3-7,26,22,19,19,18,16,93,79,69,30.34,30.29,30.24,10,7,0,14,4,18,0.00,2,Fog,129
2013-3-8,33,25,17,32,24,16,100,86,75,30.28,30.20,30.04,10,6,2,18,11,24,0.01,3,Rain,127
2013-3-9,33,32,32,34,33,32,100,96,93,30.04,29.79,29.66,7,2,0,21,15,28,0.34,8,Fog-Rain,140
2013-3-10,33,30,28,32,31,27,100,97,93,29.84,29.76,29.68,10,4,0,23,16,33,0.09,8,Rain-Snow,1
2013-3-11,30,26,23,28,22,16,100,83,74,29.87,29.77,29.73,10,8,1,23,17,28,0.00,7,Snow,321
2013-3-12,28,22,17,27,18,14,93,78,69,30.18,29.98,29.86,10,7,1,23,13,32,0.00,5,Snow,298
2013-3-13,26,20,14,19,14,10,86,80,69,30.38,30.31,30.19,10,10,10,17,10,21,0.00,0,,279
2013-3-14,35,27,19,28,24,16,100,80,70,30.24,30.09,30.02,10,9,5,16,7,21,0.00,3,Snow,161
2013-3-15,37,32,28,32,31,27,100,91,81,30.02,29.85,29.73,7,5,1,10,4,16,0.00,5,,60
2013-3-16,32,26,19,32,21,12,100,81,68,30.19,30.03,29.81,10,8,0,22,13,30,0.00,6,Fog,338
2013-3-17,32,23,14,25,15,5,80,71,59,30.20,30.04,29.84,10,10,10,21,12,26,0.00,4,,97
2013-3-18,32,23,14,30,19,5,93,81,67,29.89,29.75,29.62,10,5,0,30,19,36,0.00,7,Snow,256
2013-3-19,26,18,10,14,6,1,73,65,54,30.22,30.08,29.89,10,10,10,22,18,29,0.00,1,Snow,305
2013-3-20,21,14,8,7,4,1,73,62,49,30.25,30.18,30.10,10,10,7,25,18,33,0.00,1,Snow,313
2013-3-21,24,15,6,14,7,1,86,69,54,30.10,30.05,29.99,10,10,10,10,4,,0.00,0,,14
2013-3-22,30,20,10,19,13,7,93,70,50,30.07,30.04,30.01,10,10,10,7,1,,0.00,2,,81
2013-3-23,32,26,21,23,19,16,93,71,55,30.13,30.08,30.04,10,10,7,13,3,,0.00,2,,360
2013-3-24,32,29,26,27,23,19,93,81,69,30.06,29.97,29.90,10,7,1,17,12,23,0.00,8,Snow,350
2013-3-25,32,29,26,27,21,18,93,71,60,30.23,30.08,29.97,10,10,5,20,15,25,0.00,4,,341
2013-3-26,33,27,21,27,21,18,86,76,52,30.29,30.26,30.23,10,10,10,14,8,22,0.00,1,,304
2013-3-27,35,28,21,27,23,19,100,77,60,30.33,30.30,30.27,10,10,7,9,2,,0.00,1,,126
2013-3-28,42,35,28,32,27,21,93,74,65,30.32,30.28,30.24,10,10,10,12,4,,0.00,3,,115
2013-3-29,51,40,30,39,32,27,87,74,58,30.26,30.20,30.08,10,10,10,16,6,20,0.00,1,,140
2013-3-30,53,44,35,45,37,32,93,78,62,30.07,29.93,29.86,10,10,2,17,10,22,0.00,3,,223
2013-3-31,37,32,26,36,27,18,100,79,48,30.09,29.92,29.85,10,7,0,28,12,43,0.00,5,Fog,309